Tiempo atmosférico en la estación meteorológica de Cabacés, Tarragona (360 m.)



Fecha
DESCASC
Temp. máxima en grados centígrados (hora)
DESCASC
Temp. mínima en grados centígrados (hora)
DESCASC
Temp. media en grados centígrados
DESCASC
Racha de viento máxima en m/sg (hora)
DESCASC
Velocidad máxima media en intervalos de 10 minutos(hora)
DESCASC
Precipitaciones diarias en mm
DESCASC
Precipitaciones de 00:00 a 06:00 en mm
DESCASC
Precipitaciones de 06:00 a 12:00 en mm
DESCASC
Precipitaciones de 12:00 a 18:00 en mm
DESCASC
Precipitaciones de 18:00 a 24:00 en mm
DESCASC
28-02-2021 13.7 (17:10) 9.5 (05:00) 11.6 8.61 (10:30) 3.61 (10:10) 0.2 0 0 0.2 0
27-02-2021 16.4 (16:20) 5.5 (02:20) 10.9 6.67 (15:00) 2.5 (14:40) 0 0 0 0 0
26-02-2021 13.1 (17:00) 5.8 (05:10) 9.5 3.61 (15:30) 1.67 (13:40) 0 0 0 0 0
25-02-2021 16.6 (16:00) 9.3 (00:00) 13 7.5 (05:00) 3.33 (03:40) 0 0 0 0 0
24-02-2021 18 (16:10) 10.2 (00:00) 14.1 8.61 (11:50) 2.78 (11:20) 0 0 0 0 0
23-02-2021 18.1 (15:50) 5.5 (00:00) 11.8 6.39 (23:50) 3.06 (23:50) 0 0 0 0 0
22-02-2021 14.6 (03:00) 7.7 (00:00) 11.2 12.78 (05:30) 4.72 (02:30) 2.2 1 1.2 0 0
21-02-2021 14.7 (15:00) 9 (00:00) 11.8 13.33 (10:30) 3.89 (01:10) 0 0 0 0 0
20-02-2021 15.6 (14:00) 7 (00:00) 11.3 13.33 (17:30) 5.56 (14:30) 0 0 0 0 0
19-02-2021 19.3 (15:40) 4.5 (00:00) 11.9 8.61 (22:00) 3.61 (22:00) 0 0 0 0 0
18-02-2021 18 (16:00) 5.5 (00:00) 11.8 6.11 (10:20) 2.5 (10:50) 0 0 0 0 0
17-02-2021 18.6 (16:30) 6.9 (00:00) 12.8 6.39 (20:40) 2.22 (22:10) 0 0 0 0 0
16-02-2021 17.8 (17:00) 7.2 (00:00) 12.5 6.39 (05:10) 2.5 (10:30) 0 0 0 0 0
15-02-2021 9.7 (13:30) 7 (00:00) 8.3 8.89 (23:00) 3.06 (22:20) 0 0 0 0 0
14-02-2021 11.4 (13:50) 4.8 (00:00) 8.1 9.44 (17:50) 3.33 (13:40) 0.6 0.2 0.4 0 0
13-02-2021 15.7 (14:30) 6.5 (00:00) 11.1 6.67 (14:00) 2.5 (12:20) 0.2 0 0.2 0 0
12-02-2021 16.1 (11:20) 8.3 (00:00) 12.2 8.89 (14:50) 3.61 (14:50) 2.4 0 0 2.4 0
11-02-2021 18.2 (16:20) 4 (00:00) 11.1 6.67 (16:00) 2.78 (13:40) 0 0 0 0 0
10-02-2021 13.4 (16:50) 6.4 (00:00) 9.9 10.28 (16:40) 4.44 (16:40) 3.2 0.8 2.4 0 0
09-02-2021 12.2 (14:40) 5.9 (00:00) 9 8.33 (15:40) 3.61 (14:30) 2.8 0 0 0.4 2.4
08-02-2021 14 (16:10) 4.6 (00:00) 9.3 5.28 (02:20) 2.22 (02:20) 2.8 0 0.2 2.6 0
07-02-2021 12 (15:40) 4.4 (00:00) 8.2 8.33 (10:30) 2.78 (11:00) 1 0.6 0.2 0.2 0
06-02-2021 17.1 (13:30) 7.7 (00:00) 12.4 7.5 (01:30) 2.78 (01:20) 1.4 0 0 0 1.4
05-02-2021 16.1 (23:50) 8.7 (00:00) 12.4 12.78 (23:50) 4.44 (12:10) 0 0 0 0 0
04-02-2021 17.8 (12:10) 8.1 (00:00) 12.9 10.28 (19:30) 4.17 (20:00) 0 0 0 0 0
03-02-2021 16.7 (15:20) 6.9 (00:00) 11.8 7.22 (14:30) 2.78 (14:30) 0 0 0 0 0
02-02-2021 20.1 (16:00) 8.7 (05:50) 14.4 8.33 (01:10) 3.33 (02:10) 0 0 0 0 0
01-02-2021 17.2 (14:10) 10.9 (00:00) 14.1 14.17 (12:10) 4.72 (12:30) 0 0 0 0 0
31-01-2021 16.4 (16:40) 8.6 (00:00) 12.5 15 (12:20) 5.28 (12:30) 0 0 0 0 0

Gráficas

Temp. máximas Temp. mínimas Temp. medias Precipitaciones Rachas de viento máximas Velocidades máximas media en intervalos de 10 minutos

Datos horarios

Fecha y hora oficial Temperatura (ºC) Velocidad del viento (km/h) Dirección del viento Racha (km/h) Dirección de racha Precipitación (mm) Presión (hPa) Tendencia (hPa) Humedad (%)
2021-03-01 23:00:00 10.8 5 Este 20 Nordeste 0 -- -- 71
2021-03-01 22:00:00 10.7 5 Nordeste 28 Nordeste 0 -- -- 73
2021-03-01 21:00:00 10.8 6 Norte 18 Norte 0 -- -- 71
2021-03-01 20:00:00 11 3 Noroeste 8 Oeste 0 -- -- 78
2021-03-01 19:00:00 11.5 3 Sudeste 10 Sudoeste 0 -- -- 77
2021-03-01 18:00:00 12.2 4 Noroeste 22 Sur 0 -- -- 68
2021-03-01 17:00:00 13.4 6 Noroeste 18 Norte 0 -- -- 62
2021-03-01 16:00:00 14.2 4 Sudoeste 21 Sudeste 0 -- -- 63
2021-03-01 15:00:00 12.1 5 Sudoeste 13 Norte 0 -- -- 73
2021-03-01 14:00:00 12.2 5 Sudeste 15 Sudeste 0 -- -- 69
2021-03-01 13:00:00 12.4 8 Noroeste 15 Nordeste 0 -- -- 68
2021-03-01 12:00:00 11.3 6 Este 17 Norte 0 -- -- 70
2021-03-01 11:00:00 10.9 6 Sudeste 18 Nordeste 0 -- -- 70
2021-03-01 10:00:00 10.6 6 Noroeste 15 Nordeste 0 -- -- 72
2021-03-01 09:00:00 10.3 3 Norte 9 Norte 0 -- -- 72
2021-03-01 08:00:00 9.9 0 Calma 14 Este 0 -- -- 76
2021-03-01 07:00:00 10.1 6 Norte 20 Este 0 -- -- 75
2021-03-01 06:00:00 10.1 6 Nordeste 19 Este 0 -- -- 77
2021-03-01 05:00:00 9.9 6 Noroeste 17 Sur 0 -- -- 75
2021-03-01 04:00:00 10 8 Norte 24 Norte 0 -- -- 72
2021-03-01 03:00:00 9.9 6 Oeste 19 Sur 0 -- -- 76
2021-03-01 02:00:00 10 8 Noroeste 19 Oeste 0 -- -- 76
2021-03-01 01:00:00 10.1 11 Noroeste 21 Noroeste 0 -- -- 76
2021-03-01 00:00:00 9.8 12 Noroeste 23 Norte 0 -- -- 77
2021-02-28 23:00:00 10.1 8 Norte 27 Sur 0 -- -- 76
2021-02-28 22:00:00 10.3 12 Noroeste 22 Norte 0 -- -- 79
2021-02-28 21:00:00 10.1 7 Noroeste 20 Sudoeste 0 -- -- 78
2021-02-28 20:00:00 10.3 6 Sudoeste 22 Sudeste 0 -- -- 79
2021-02-28 19:00:00 10.6 5 Sudeste 21 Sudeste 0 -- -- 75
2021-02-28 18:00:00 12.5 6 Este 21 Sudeste 0 -- -- 69
2021-02-28 17:00:00 13.6 6 Oeste 25 Sudeste 0 -- -- 69
2021-02-28 16:00:00 12.9 6 Sudeste 18 Sudeste 0 -- -- 69
2021-02-28 15:00:00 11.7 7 Sudeste 25 Sudeste 0.2 -- -- 81
2021-02-28 14:00:00 13.1 8 Noroeste 27 Sudoeste 0 -- -- 74
2021-02-28 13:00:00 12.8 10 Sudeste 29 Sudeste 0 -- -- 72
2021-02-28 12:00:00 13.2 9 Sudoeste 24 Sudeste 0 -- -- 73
2021-02-28 11:00:00 10.4 7 Oeste 31 Sur 0 -- -- 81
2021-02-28 10:00:00 10.5 10 Sudeste 25 Este 0 -- -- 81
2021-02-28 09:00:00 10.4 10 Sudeste 21 Este 0 -- -- 80
2021-02-28 08:00:00 10.2 5 Sudoeste 17 Este 0 -- -- 81
2021-02-28 07:00:00 10 5 Oeste 19 Oeste 0 -- -- 82
2021-02-28 06:00:00 9.8 3 Oeste 12 Sudoeste 0 -- -- 84
2021-02-28 05:00:00 9.5 2 Noroeste 19 Este 0 -- -- 87
2021-02-28 04:00:00 10.1 6 Sur 17 Nordeste 0 -- -- 84
2021-02-28 03:00:00 10.4 4 Noroeste 12 Oeste 0 -- -- 83
2021-02-28 02:00:00 10.4 6 Nordeste 14 Nordeste 0 -- -- 85
2021-02-28 01:00:00 9.8 3 Norte 10 Nordeste 0 -- -- 86
2021-02-28 00:00:00 10.3 6 Norte 18 Nordeste 0 -- -- 84
2021-02-27 23:00:00 10.6 6 Norte 12 Nordeste 0 -- -- 81
2021-02-27 22:00:00 11 3 Norte 18 Sudeste 0 -- -- 80
2021-02-27 21:00:00 11.4 5 Sudeste 17 Sudeste 0 -- -- 78
2021-02-27 20:00:00 11.2 0 Calma 3 Sudeste 0 -- -- 77
2021-02-27 19:00:00 12.9 0 Calma 5 Oeste 0 -- -- 71
2021-02-27 18:00:00 15.6 4 Oeste 15 Noroeste 0 -- -- 57
2021-02-27 17:00:00 16.3 6 Oeste 16 Sudoeste 0 -- -- 56
2021-02-27 16:00:00 16.2 8 Oeste 21 Oeste 0 -- -- 58
2021-02-27 15:00:00 15.1 9 Oeste 24 Oeste 0 -- -- 61
2021-02-27 14:00:00 14.1 8 Oeste 20 Oeste 0 -- -- 67
2021-02-27 13:00:00 11.4 5 Norte 19 Norte 0 -- -- 80
2021-02-27 12:00:00 9.7 6 Noroeste 17 Norte 0 -- -- 85
2021-02-27 11:00:00 8.6 4 Sudeste 12 Norte 0 -- -- 91
2021-02-27 10:00:00 8 4 Sudeste 15 Sur 0 -- -- 93
2021-02-27 09:00:00 7.7 5 Este 14 Nordeste 0 -- -- 96
2021-02-27 08:00:00 7.8 2 Sudoeste 4 Sur 0 -- -- 96
2021-02-27 07:00:00 8.2 3 Nordeste 12 Este 0 -- -- 96
2021-02-27 06:00:00 7.4 2 Sudeste 5 Sur 0 -- -- 97
2021-02-27 05:00:00 6.5 0 Calma 2 Sudeste 0 -- -- 96
2021-02-27 04:00:00 6.5 0 Calma 2 Sudoeste 0 -- -- 96
2021-02-27 03:00:00 5.8 0 Calma 2 Noroeste 0 -- -- 96
2021-02-27 02:00:00 5.7 0 Calma 3 Norte 0 -- -- 95
2021-02-27 01:00:00 6.2 0 Calma 4 Sudoeste 0 -- -- 94
2021-02-27 00:00:00 7.3 3 Sur 7 Nordeste 0 -- -- 95
2021-02-26 23:00:00 7 0 Calma 3 Oeste 0 -- -- 94
2021-02-26 22:00:00 7.3 0 Calma 5 Sudeste 0 -- -- 92
2021-02-26 21:00:00 8.1 0 Calma 4 Nordeste 0 -- -- 90
2021-02-26 20:00:00 8.9 2 Nordeste 4 Nordeste 0 -- -- 88
2021-02-26 19:00:00 10.5 0 Calma 4 Oeste 0 -- -- 84
2021-02-26 18:00:00 12.2 3 Oeste 8 Noroeste 0 -- -- 79
2021-02-26 17:00:00 13.1 3 Oeste 9 Sudoeste 0 -- -- 78
2021-02-26 16:00:00 12 3 Noroeste 13 Oeste 0 -- -- 81
2021-02-26 15:00:00 11.9 4 Noroeste 11 Noroeste 0 -- -- 81
2021-02-26 14:00:00 11.4 6 Oeste 13 Noroeste 0 -- -- 83
2021-02-26 13:00:00 11.4 0 Calma 9 Norte 0 -- -- 83
2021-02-26 12:00:00 10.7 3 Norte 8 Nordeste 0 -- -- 88
2021-02-26 11:00:00 9.5 2 Sudoeste 5 Noroeste 0 -- -- 94
2021-02-26 10:00:00 8.8 0 Calma 4 Noroeste 0 -- -- 95
2021-02-26 09:00:00 7.9 2 Sudeste 5 Sudoeste 0 -- -- 96
2021-02-26 08:00:00 7.1 0 Calma 4 Oeste 0 -- -- 96
2021-02-26 07:00:00 7 0 Calma 4 Nordeste 0 -- -- 95
2021-02-26 06:00:00 6.3 0 Calma 4 Sudeste 0 -- -- 95
2021-02-26 05:00:00 5.9 0 Calma 2 Noroeste 0 -- -- 94
2021-02-26 04:00:00 6.5 0 Calma 2 Sudoeste 0 -- -- 93
2021-02-26 03:00:00 6.9 0 Calma 0 Calma 0 -- -- 92
2021-02-26 02:00:00 7.6 0 Calma 2 Noroeste 0 -- -- 91
2021-02-26 01:00:00 8.4 4 Este 6 Sudeste 0 -- -- 89
2021-02-26 00:00:00 9.3 0 Calma 9 Este 0 -- -- 87
2021-02-25 23:00:00 10.4 3 Sudeste 9 Sur 0 -- -- 86
2021-02-25 22:00:00 10.9 4 Nordeste 14 Sudoeste 0 -- -- 85
2021-02-25 21:00:00 11.3 4 Sudoeste 17 Sudoeste 0 -- -- 85
2021-02-25 20:00:00 11.4 5 Sur 17 Sur 0 -- -- 85
2021-02-25 19:00:00 12 6 Sudeste 21 Sudeste 0 -- -- 81
2021-02-25 18:00:00 14 4 Norte 16 Sudoeste 0 -- -- 73
2021-02-25 17:00:00 15 8 Oeste 19 Noroeste 0 -- -- 69
2021-02-25 16:00:00 16.6 6 Sur 19 Sudeste 0 -- -- 63
2021-02-25 15:00:00 16.2 6 Sur 20 Sudeste 0 -- -- 63
2021-02-25 14:00:00 15.5 7 Norte 27 Oeste 0 -- -- 65
2021-02-25 13:00:00 14 5 Sur 27 Oeste 0 -- -- 68
2021-02-25 12:00:00 13.6 8 Sudeste 24 Sudoeste 0 -- -- 69
2021-02-25 11:00:00 12.6 8 Este 25 Sudeste 0 -- -- 71
2021-02-25 10:00:00 11.7 8 Sudeste 24 Sudeste 0 -- -- 76
2021-02-25 09:00:00 10.5 8 Sudeste 22 Este 0 -- -- 80
2021-02-25 08:00:00 10.1 6 Sudeste 18 Sudeste 0 -- -- 81
2021-02-25 07:00:00 10.3 8 Sudeste 20 Sudeste 0 -- -- 80
2021-02-25 06:00:00 10.4 5 Sudeste 19 Sudeste 0 -- -- 81
2021-02-25 05:00:00 10.5 10 Sudeste 27 Sudeste 0 -- -- 81
2021-02-25 04:00:00 10.7 5 Este 26 Sudeste 0 -- -- 80
2021-02-25 03:00:00 10.7 10 Sudeste 26 Sudeste 0 -- -- 81
2021-02-25 02:00:00 10.7 9 Sudeste 26 Sudeste 0 -- -- 79
2021-02-25 01:00:00 10.4 9 Oeste 26 Oeste 0 -- -- 79
2021-02-25 00:00:00 10.5 5 Oeste 28 Sur 0 -- -- 79
2021-02-24 23:00:00 10.4 8 Noroeste 31 Este 0 -- -- 78
2021-02-24 22:00:00 10.2 10 Norte 27 Nordeste 0 -- -- 78
2021-02-24 21:00:00 10.3 10 Oeste 26 Sur 0 -- -- 81
2021-02-24 20:00:00 11 8 Sur 26 Sudeste 0 -- -- 79
2021-02-24 19:00:00 12.1 6 Sur 23 Sur 0 -- -- 76
2021-02-24 18:00:00 15.1 4 Sur 16 Sur 0 -- -- 69
2021-02-24 17:00:00 16.9 6 Sudoeste 20 Sudoeste 0 -- -- 64
2021-02-24 16:00:00 17.9 7 Sudeste 30 Sur 0 -- -- 56
2021-02-24 15:00:00 16.7 6 Sudoeste 21 Este 0 -- -- 63
2021-02-24 14:00:00 15.8 6 Sur 19 Sudeste 0 -- -- 66
2021-02-24 13:00:00 13.3 8 Sur 25 Este 0 -- -- 75
2021-02-24 12:00:00 12.8 7 Sur 31 Sur 0 -- -- 79
2021-02-24 11:00:00 12.5 6 Sur 17 Sur 0 -- -- 81
2021-02-24 10:00:00 12 6 Noroeste 17 Noroeste 0 -- -- 83
2021-02-24 09:00:00 11.1 4 Nordeste 15 Nordeste 0 -- -- 85
2021-02-24 08:00:00 10.9 5 Nordeste 14 Este 0 -- -- 84
2021-02-24 07:00:00 11.2 4 Norte 14 Norte 0 -- -- 84
2021-02-24 06:00:00 11.1 4 Norte 8 Norte 0 -- -- 86
2021-02-24 05:00:00 11.3 3 Nordeste 13 Norte 0 -- -- 84
2021-02-24 04:00:00 11.6 5 Sudeste 22 Sudeste 0 -- -- 84
2021-02-24 03:00:00 11.7 4 Sur 15 Sudeste 0 -- -- 85
2021-02-24 02:00:00 11.8 4 Sudoeste 21 Sudeste 0 -- -- 85
2021-02-24 01:00:00 11.8 8 Sudeste 21 Sudeste 0 -- -- 86
2021-02-24 00:00:00 12.2 10 Sudeste 23 Sudeste 0 -- -- 84
2021-02-23 23:00:00 12.1 5 Sur 20 Sudeste 0 -- -- 82
2021-02-23 22:00:00 12.2 5 Sudeste 21 Sudeste 0 -- -- 82
2021-02-23 21:00:00 12.4 5 Oeste 19 Este 0 -- -- 83
2021-02-23 20:00:00 12.3 3 Sur 9 Sudeste 0 -- -- 84
2021-02-23 19:00:00 13.7 3 Sur 8 Este 0 -- -- 77
2021-02-23 18:00:00 16.5 3 Oeste 10 Sur 0 -- -- 66
2021-02-23 17:00:00 17.3 4 Oeste 13 Noroeste 0 -- -- 64
2021-02-23 16:00:00 18.1 5 Noroeste 15 Norte 0 -- -- 61
2021-02-23 15:00:00 17.2 3 Sudoeste 11 Oeste 0 -- -- 63
2021-02-23 14:00:00 15.2 3 Oeste 9 Noroeste 0 -- -- 71
2021-02-23 13:00:00 13.2 2 Noroeste 10 Oeste 0 -- -- 78
2021-02-23 12:00:00 11.6 5 Oeste 11 Noroeste 0 -- -- 84
2021-02-23 11:00:00 9.4 3 Sur 7 Noroeste 0 -- -- 90
2021-02-23 10:00:00 8.5 3 Oeste 5 Sur 0 -- -- 92
2021-02-23 09:00:00 8 0 Calma 6 Noroeste 0 -- -- 91
2021-02-23 08:00:00 7.8 2 Norte 9 Sudeste 0 -- -- 89
2021-02-23 07:00:00 7.5 2 Nordeste 7 Nordeste 0 -- -- 92
2021-02-23 06:00:00 6.8 0 Calma 6 Noroeste 0 -- -- 93
2021-02-23 05:00:00 6.5 2 Nordeste 5 Noroeste 0 -- -- 92
2021-02-23 04:00:00 6.6 2 Oeste 6 Norte 0 -- -- 93
2021-02-23 03:00:00 5.6 0 Calma 4 Nordeste 0 -- -- 92
2021-02-23 02:00:00 5.8 0 Calma 3 Noroeste 0 -- -- 90
2021-02-23 01:00:00 7.1 0 Calma 5 Este 0 -- -- 88
2021-02-23 00:00:00 7.9 2 Sudeste 6 Noroeste 0 -- -- 85
2021-02-22 23:00:00 8.4 2 Noroeste 6 Norte 0 -- -- 83
2021-02-22 22:00:00 8.4 2 Norte 6 Nordeste 0 -- -- 82
2021-02-22 21:00:00 8.5 2 Nordeste 5 Este 0 -- -- 83
2021-02-22 20:00:00 8.6 3 Sur 8 Sudoeste 0 -- -- 82
2021-02-22 19:00:00 9 2 Noroeste 8 Oeste 0 -- -- 81
2021-02-22 18:00:00 9.9 4 Oeste 13 Norte 0 -- -- 78
2021-02-22 17:00:00 10.8 5 Noroeste 12 Noroeste 0 -- -- 78
2021-02-22 16:00:00 9 4 Oeste 9 Oeste 0 -- -- 84
2021-02-22 15:00:00 8.1 3 Sudoeste 8 Oeste 0 -- -- 86
2021-02-22 14:00:00 7.8 5 Noroeste 10 Oeste 0 -- -- 88
2021-02-22 13:00:00 7.9 3 Oeste 12 Sur 0 -- -- 86
2021-02-22 12:00:00 8.7 3 Noroeste 24 Oeste 0 -- -- 86
2021-02-22 11:00:00 11.1 4 Sudoeste 27 Sudeste 0 -- -- 84
2021-02-22 10:00:00 11.5 8 Sudeste 29 Este 1 -- -- 88
2021-02-22 09:00:00 11.7 13 Sudoeste 33 Oeste 0.2 -- -- 86
2021-02-22 08:00:00 11.6 11 Sudoeste 31 Noroeste 0 -- -- 84
2021-02-22 07:00:00 11.8 11 Sur 36 Sudeste 0 -- -- 82
2021-02-22 06:00:00 12.4 8 Sudeste 46 Sudeste 0 -- -- 82
2021-02-22 05:00:00 12.6 12 Sudeste 37 Este 1 -- -- 83
2021-02-22 04:00:00 13.4 8 Oeste 36 Norte 0 -- -- 80
2021-02-22 03:00:00 14.6 12 Este 37 Nordeste 0 -- -- 68
2021-02-22 02:00:00 13.4 14 Este 44 Nordeste 0 -- -- 78
2021-02-22 01:00:00 13.3 10 Norte 32 Noroeste 0 -- -- 77
2021-02-22 00:00:00 13.6 8 Oeste 37 Nordeste 0 -- -- 73
2021-02-21 23:00:00 13 12 Noroeste 32 Norte 0 -- -- 75
2021-02-21 22:00:00 13 5 Este 24 Nordeste 0 -- -- 74
2021-02-21 21:00:00 12.8 11 Norte 31 Este 0 -- -- 74
2021-02-21 20:00:00 12.7 8 Norte 33 Norte 0 -- -- 73
2021-02-21 19:00:00 13 8 Noroeste 25 Este 0 -- -- 71
2021-02-21 18:00:00 13.1 10 Norte 33 Este 0 -- -- 72
2021-02-21 17:00:00 13.3 10 Norte 35 Este 0 -- -- 70
2021-02-21 16:00:00 13.8 12 Este 28 Sudeste 0 -- -- 69
2021-02-21 15:00:00 14.7 10 Noroeste 36 Norte 0 -- -- 68
2021-02-21 14:00:00 14.3 9 Noroeste 44 Sudoeste 0 -- -- 70
2021-02-21 13:00:00 13.8 10 Nordeste 32 Sur 0 -- -- 69
2021-02-21 12:00:00 12.9 11 Noroeste 38 Sudeste 0 -- -- 72
2021-02-21 11:00:00 13.3 10 Norte 48 Sudeste 0 -- -- 68
2021-02-21 10:00:00 12.3 7 Norte 26 Noroeste 0 -- -- 68
2021-02-21 09:00:00 11.2 10 Sudoeste 26 Sur 0 -- -- 70
2021-02-21 08:00:00 9.3 6 Noroeste 19 Sudeste 0 -- -- 77
2021-02-21 07:00:00 9.3 5 Noroeste 18 Oeste 0 -- -- 77
2021-02-21 06:00:00 9.6 9 Noroeste 19 Sudoeste 0 -- -- 75
2021-02-21 05:00:00 9.6 8 Noroeste 22 Sudoeste 0 -- -- 75
2021-02-21 04:00:00 9.1 4 Sur 13 Sur 0 -- -- 78
2021-02-21 03:00:00 10.1 6 Sudoeste 27 Sudoeste 0 -- -- 71
2021-02-21 02:00:00 10.1 9 Sudoeste 30 Sur 0 -- -- 72
2021-02-21 01:00:00 10.7 10 Sudoeste 28 Sur 0 -- -- 66
2021-02-21 00:00:00 10.6 9 Sudoeste 32 Sur 0 -- -- 63
2021-02-20 23:00:00 10 8 Oeste 27 Sudoeste 0 -- -- 67
2021-02-20 22:00:00 10.4 10 Oeste 34 Sur 0 -- -- 64
2021-02-20 21:00:00 10.4 11 Noroeste 36 Oeste 0 -- -- 62
2021-02-20 20:00:00 10.3 13 Oeste 28 Oeste 0 -- -- 68
2021-02-20 19:00:00 10.5 9 Oeste 33 Sur 0 -- -- 72
2021-02-20 18:00:00 11.9 10 Sur 48 Sudeste 0 -- -- 69
2021-02-20 17:00:00 13.5 14 Sur 36 Sudeste 0 -- -- 67
2021-02-20 16:00:00 14.5 17 Sudeste 43 Este 0 -- -- 61
2021-02-20 15:00:00 14.5 18 Sudeste 40 Sudeste 0 -- -- 60
2021-02-20 14:00:00 15.6 15 Sudeste 39 Sudeste 0 -- -- 57
2021-02-20 13:00:00 15.1 14 Sudeste 40 Sudeste 0 -- -- 60
2021-02-20 12:00:00 14.1 14 Sudeste 38 Sur 0 -- -- 63
2021-02-20 11:00:00 13.1 13 Sudeste 31 Sur 0 -- -- 66
2021-02-20 10:00:00 11.9 12 Sudeste 34 Sudeste 0 -- -- 68
2021-02-20 09:00:00 10.2 11 Sudeste 36 Sudeste 0 -- -- 74
2021-02-20 08:00:00 10 13 Sudeste 31 Este 0 -- -- 73
2021-02-20 07:00:00 9.7 12 Sur 27 Sur 0 -- -- 76
2021-02-20 06:00:00 7.3 5 Noroeste 20 Sur 0 -- -- 83
2021-02-20 05:00:00 7.8 5 Sudoeste 14 Sudeste 0 -- -- 80
2021-02-20 04:00:00 7 4 Norte 11 Oeste 0 -- -- 83
2021-02-20 03:00:00 7.9 6 Norte 15 Sudeste 0 -- -- 80
2021-02-20 02:00:00 8 5 Norte 12 Norte 0 -- -- 77
2021-02-20 01:00:00 8.3 6 Norte 13 Noroeste 0 -- -- 73
2021-02-20 00:00:00 9.7 4 Norte 23 Sur 0 -- -- 71
2021-02-19 23:00:00 12.2 5 Sur 26 Sudeste 0 -- -- 57
2021-02-19 22:00:00 14.3 13 Sudeste 31 Este 0 -- -- 43
2021-02-19 21:00:00 14.4 10 Este 24 Este 0 -- -- 43
2021-02-19 20:00:00 14.3 6 Norte 23 Este 0 -- -- 43
2021-02-19 19:00:00 14.8 6 Norte 23 Sur 0 -- -- 46
2021-02-19 18:00:00 16.6 7 Sudeste 28 Este 0 -- -- 45
2021-02-19 17:00:00 18.2 8 Sudeste 24 Sudeste 0 -- -- 44
2021-02-19 16:00:00 19 10 Sudeste 25 Sudeste 0 -- -- 44
2021-02-19 15:00:00 19 4 Sur 18 Sudoeste 0 -- -- 49
2021-02-19 14:00:00 18.2 7 Sur 14 Sudeste 0 -- -- 47
2021-02-19 13:00:00 15.6 6 Oeste 15 Oeste 0 -- -- 63
2021-02-19 12:00:00 13.5 5 Noroeste 12 Oeste 0 -- -- 70
2021-02-19 11:00:00 11.2 0 Calma 4 Nordeste 0 -- -- 74
2021-02-19 10:00:00 7.3 0 Calma 4 Sudeste 0 -- -- 88
2021-02-19 09:00:00 5.9 0 Calma 2 Sur 0 -- -- 87
2021-02-19 08:00:00 5.2 0 Calma 4 Sudoeste 0 -- -- 89
2021-02-19 07:00:00 5.4 0 Calma 3 Sudoeste 0 -- -- 92
2021-02-19 06:00:00 5.1 0 Calma 2 Oeste 0 -- -- 95
2021-02-19 05:00:00 5.3 0 Calma 2 Oeste 0 -- -- 96
2021-02-19 04:00:00 4.9 0 Calma 2 Oeste 0 -- -- 95
2021-02-19 03:00:00 4.5 0 Calma 4 Oeste 0 -- -- 94
2021-02-19 02:00:00 5.5 0 Calma 3 Sudeste 0 -- -- 93
2021-02-19 01:00:00 6.3 0 Calma 5 Sudeste 0 -- -- 94
2021-02-19 00:00:00 6.8 3 Sudeste 10 Norte 0 -- -- 93
2021-02-18 23:00:00 7.1 2 Norte 7 Norte 0 -- -- 91
2021-02-18 22:00:00 7.7 3 Norte 6 Noroeste 0 -- -- 90
2021-02-18 21:00:00 8.8 3 Norte 7 Norte 0 -- -- 87
2021-02-18 20:00:00 10.4 2 Norte 12 Sur 0 -- -- 83
2021-02-18 19:00:00 11.5 6 Sudoeste 13 Oeste 0 -- -- 79
2021-02-18 18:00:00 13.7 5 Noroeste 17 Sur 0 -- -- 74
2021-02-18 17:00:00 16.9 6 Sur 16 Sur 0 -- -- 63
2021-02-18 16:00:00 18 6 Sur 15 Sudeste 0 -- -- 60
2021-02-18 15:00:00 17.3 6 Sudoeste 14 Sudeste 0 -- -- 62
2021-02-18 14:00:00 16.5 5 Sudoeste 16 Noroeste 0 -- -- 64
2021-02-18 13:00:00 15.3 5 Oeste 12 Oeste 0 -- -- 69
2021-02-18 12:00:00 13 7 Noroeste 15 Noroeste 0 -- -- 78
2021-02-18 11:00:00 11 9 Noroeste 22 Sudoeste 0 -- -- 88
2021-02-18 10:00:00 7.7 6 Sudoeste 21 Sur 0 -- -- 97
2021-02-18 09:00:00 6.6 3 Oeste 11 Oeste 0 -- -- 97
2021-02-18 08:00:00 5.9 2 Sudeste 4 Norte 0 -- -- 96
2021-02-18 07:00:00 5.9 0 Calma 9 Nordeste 0 -- -- 95
2021-02-18 06:00:00 5.7 2 Este 5 Norte 0 -- -- 95
2021-02-18 05:00:00 5.6 0 Calma 5 Nordeste 0 -- -- 93
2021-02-18 04:00:00 5.9 0 Calma 5 Sudeste 0 -- -- 91
2021-02-18 03:00:00 6.8 0 Calma 6 Nordeste 0 -- -- 89
2021-02-18 02:00:00 8 0 Calma 6 Nordeste 0 -- -- 85
2021-02-18 01:00:00 9.2 2 Este 8 Nordeste 0 -- -- 82
2021-02-18 00:00:00 10.2 2 Norte 10 Oeste 0 -- -- 79
2021-02-17 23:00:00 13.1 6 Sudoeste 20 Sur 0 -- -- 65
2021-02-17 22:00:00 13.2 5 Sur 21 Sudeste 0 -- -- 65
2021-02-17 21:00:00 13.7 3 Sudeste 23 Sudeste 0 -- -- 61
2021-02-17 20:00:00 13.7 5 Sudeste 16 Sudeste 0 -- -- 64
2021-02-17 19:00:00 13.9 5 Sur 17 Sudeste 0 -- -- 73
2021-02-17 18:00:00 15.8 6 Sur 13 Sudeste 0 -- -- 69
2021-02-17 17:00:00 18.1 5 Sur 13 Sur 0 -- -- 53
2021-02-17 16:00:00 17.9 4 Sur 15 Sudoeste 0 -- -- 54
2021-02-17 15:00:00 18.2 5 Sur 9 Sur 0 -- -- 58
2021-02-17 14:00:00 17.3 4 Sur 10 Sudoeste 0 -- -- 64
2021-02-17 13:00:00 16.1 3 Oeste 9 Noroeste 0 -- -- 66
2021-02-17 12:00:00 14.1 2 Oeste 6 Sudoeste 0 -- -- 77
2021-02-17 11:00:00 10.9 3 Noroeste 5 Noroeste 0 -- -- 89
2021-02-17 10:00:00 8.6 0 Calma 3 Noroeste 0 -- -- 94
2021-02-17 09:00:00 7.5 0 Calma 0 Calma 0 -- -- 93
2021-02-17 08:00:00 7.6 0 Calma 2 Sudeste 0 -- -- 93
2021-02-17 07:00:00 8 0 Calma 4 Sudeste 0 -- -- 92
2021-02-17 06:00:00 8.2 0 Calma 3 Sur 0 -- -- 91
2021-02-17 05:00:00 7.9 0 Calma 4 Oeste 0 -- -- 94
2021-02-17 04:00:00 7.2 0 Calma 3 Sudeste 0 -- -- 94
2021-02-17 03:00:00 7.2 0 Calma 2 Noroeste 0 -- -- 93
2021-02-17 02:00:00 7.1 0 Calma 3 Este 0 -- -- 93
2021-02-17 01:00:00 6.9 0 Calma 5 Sur 0 -- -- 92
2021-02-17 00:00:00 7.2 0 Calma 5 Norte 0 -- -- 90
2021-02-16 23:00:00 7.7 0 Calma 4 Nordeste 0 -- -- 90
2021-02-16 22:00:00 8.4 0 Calma 5 Sudeste 0 -- -- 88
2021-02-16 21:00:00 9.6 3 Nordeste 6 Oeste 0 -- -- 85
2021-02-16 20:00:00 10.5 0 Calma 4 Sur 0 -- -- 82
2021-02-16 19:00:00 12.8 0 Calma 5 Sur 0 -- -- 74
2021-02-16 18:00:00 16.4 3 Sudoeste 8 Oeste 0 -- -- 61
2021-02-16 17:00:00 17.8 4 Oeste 9 Noroeste 0 -- -- 56
2021-02-16 16:00:00 17.3 5 Sudoeste 13 Sudoeste 0 -- -- 57
2021-02-16 15:00:00 16.8 5 Oeste 13 Sur 0 -- -- 58
2021-02-16 14:00:00 15.8 4 Oeste 18 Noroeste 0 -- -- 58
2021-02-16 13:00:00 14.4 6 Sur 13 Sudoeste 0 -- -- 62
2021-02-16 12:00:00 13 5 Oeste 17 Noroeste 0 -- -- 68
2021-02-16 11:00:00 12.2 4 Sudeste 20 Este 0 -- -- 69
2021-02-16 10:00:00 10.4 5 Sur 17 Sudeste 0 -- -- 75
2021-02-16 09:00:00 9.3 4 Sur 21 Sudeste 0 -- -- 78
2021-02-16 08:00:00 9.4 7 Sudeste 19 Sudeste 0 -- -- 79
2021-02-16 07:00:00 9.8 3 Noroeste 17 Oeste 0 -- -- 78
2021-02-16 06:00:00 9.8 6 Noroeste 23 Sudeste 0 -- -- 82
2021-02-16 05:00:00 9.9 6 Sudeste 20 Sudeste 0 -- -- 81
2021-02-16 04:00:00 9.8 7 Sudeste 21 Sudeste 0 -- -- 81
2021-02-16 03:00:00 9.7 5 Sur 18 Sudeste 0 -- -- 83
2021-02-16 02:00:00 9.6 6 Sur 21 Sudeste 0 -- -- 83
2021-02-16 01:00:00 9.3 4 Sur 23 Este 0 -- -- 85
2021-02-16 00:00:00 9.5 8 Sudeste 26 Sudeste 0 -- -- 86
2021-02-15 23:00:00 9.5 9 Sudeste 32 Sudeste 0 -- -- 87
2021-02-15 22:00:00 9.3 7 Sur 21 Sudeste 0 -- -- 87
2021-02-15 21:00:00 9.2 6 Sudoeste 18 Oeste 0 -- -- 86
2021-02-15 20:00:00 9 6 Oeste 24 Sudoeste 0 -- -- 86
2021-02-15 19:00:00 8.7 6 Noroeste 19 Noroeste 0 -- -- 86
2021-02-15 18:00:00 8.9 6 Oeste 31 Sur 0 -- -- 85
2021-02-15 17:00:00 9.2 8 Sudeste 23 Sudeste 0 -- -- 85
2021-02-15 16:00:00 9.6 7 Sudoeste 24 Sudoeste 0 -- -- 83
2021-02-15 15:00:00 9.6 6 Sur 17 Sudeste 0 -- -- 83
2021-02-15 14:00:00 9.7 5 Sur 15 Este 0 -- -- 82
2021-02-15 13:00:00 9.4 8 Sudeste 18 Sur 0 -- -- 82
2021-02-15 12:00:00 8.9 5 Sur 20 Sudeste 0 -- -- 84
2021-02-15 11:00:00 8.7 7 Sur 18 Sudeste 0 -- -- 83
2021-02-15 10:00:00 8.2 5 Sudoeste 22 Sudeste 0 -- -- 84
2021-02-15 09:00:00 7.8 5 Sudeste 19 Sur 0 -- -- 84
2021-02-15 08:00:00 7.5 7 Sur 24 Este 0 -- -- 84
2021-02-15 07:00:00 7.3 7 Sur 23 Este 0 -- -- 85
2021-02-15 06:00:00 7.3 6 Sudeste 23 Sudeste 0 -- -- 83
2021-02-15 05:00:00 7.3 4 Sudeste 23 Este 0 -- -- 83
2021-02-15 04:00:00 7.1 6 Sur 22 Sudoeste 0 -- -- 84
2021-02-15 03:00:00 7.1 5 Sudeste 26 Este 0 -- -- 84
2021-02-15 02:00:00 7.1 6 Sudoeste 20 Sur 0 -- -- 84
2021-02-15 01:00:00 7.1 9 Sudoeste 23 Sur 0 -- -- 84
2021-02-15 00:00:00 7 8 Sudoeste 23 Sur 0 -- -- 84
2021-02-14 23:00:00 6.6 5 Oeste 21 Sudeste 0 -- -- 83
2021-02-14 22:00:00 6.5 6 Noroeste 17 Oeste 0 -- -- 85
2021-02-14 21:00:00 6.7 6 Noroeste 26 Sudoeste 0 -- -- 85
2021-02-14 20:00:00 6.9 8 Oeste 22 Noroeste 0 -- -- 83
2021-02-14 19:00:00 7.3 7 Oeste 25 Nordeste 0 -- -- 83
2021-02-14 18:00:00 8.5 6 Norte 34 Este 0 -- -- 78
2021-02-14 17:00:00 9.1 9 Noroeste 19 Oeste 0 -- -- 79
2021-02-14 16:00:00 9.7 7 Oeste 19 Oeste 0 -- -- 77
2021-02-14 15:00:00 10.4 9 Oeste 24 Noroeste 0 -- -- 77
2021-02-14 14:00:00 11.2 9 Noroeste 28 Norte 0 -- -- 74
2021-02-14 13:00:00 9.9 7 Norte 22 Noroeste 0 -- -- 80
2021-02-14 12:00:00 9.8 7 Noroeste 18 Oeste 0 -- -- 82
2021-02-14 11:00:00 9.4 9 Noroeste 23 Nordeste 0 -- -- 83
2021-02-14 10:00:00 9.1 7 Oeste 19 Sur 0 -- -- 85
2021-02-14 09:00:00 8.6 5 Oeste 24 Sur 0 -- -- 88
2021-02-14 08:00:00 8.6 7 Sur 16 Sudoeste 0 -- -- 91
2021-02-14 07:00:00 9 9 Sudoeste 19 Oeste 0.4 -- -- 91
2021-02-14 06:00:00 8.8 4 Sudeste 14 Sudeste 0.2 -- -- 91
2021-02-14 05:00:00 6.9 3 Sur 6 Sur 0 -- -- 96
2021-02-14 04:00:00 5 0 Calma 6 Sudeste 0 -- -- 93
2021-02-14 03:00:00 5.1 0 Calma 4 Sur 0 -- -- 92
2021-02-14 02:00:00 5.3 0 Calma 4 Este 0 -- -- 91
2021-02-14 01:00:00 5.9 0 Calma 4 Sudeste 0 -- -- 89
2021-02-14 00:00:00 6.5 3 Nordeste 7 Este 0 -- -- 86
2021-02-13 23:00:00 7.2 0 Calma 3 Nordeste 0 -- -- 83
2021-02-13 22:00:00 8.1 0 Calma 5 Sudeste 0 -- -- 80
2021-02-13 21:00:00 9.3 2 Este 5 Nordeste 0 -- -- 76
2021-02-13 20:00:00 10.6 2 Este 9 Nordeste 0 -- -- 70
2021-02-13 19:00:00 12.1 4 Este 12 Sudoeste 0 -- -- 65
2021-02-13 18:00:00 13.1 4 Sur 15 Sudoeste 0 -- -- 62
2021-02-13 17:00:00 14 5 Sudoeste 14 Sudoeste 0 -- -- 60
2021-02-13 16:00:00 14.5 5 Sur 20 Sur 0 -- -- 59
2021-02-13 15:00:00 14.8 6 Sudoeste 19 Sudoeste 0 -- -- 59
2021-02-13 14:00:00 15.5 8 Sur 24 Sudoeste 0 -- -- 58
2021-02-13 13:00:00 13.9 5 Sudoeste 20 Nordeste 0 -- -- 66
2021-02-13 08:00:00 -- -- -- -- -- -- -- -- --
2021-02-13 07:00:00 7.4 5 Nordeste 12 Sur 0 -- -- 87
2021-02-13 06:00:00 7.7 5 Este 13 Este 0 -- -- 87
2021-02-13 05:00:00 7.7 5 Norte 12 Nordeste 0 -- -- 88
2021-02-13 04:00:00 7.7 0 Calma 10 Sur 0 -- -- 88
2021-02-13 03:00:00 7.5 0 Calma 7 Nordeste 0 -- -- 88
2021-02-13 02:00:00 8.8 4 Nordeste 12 Sur 0 -- -- 84
2021-02-13 01:00:00 9.5 3 Sur 21 Norte 0 -- -- 81
2021-02-13 00:00:00 9.6 7 Este 18 Norte 0 -- -- 83
2021-02-12 23:00:00 9.8 5 Sudeste 14 Sudeste 0 -- -- 83
2021-02-12 22:00:00 9.8 6 Sudeste 15 Sudeste 0 -- -- 84
2021-02-12 21:00:00 10.4 6 Sudeste 15 Sudeste 0 -- -- 83
2021-02-12 20:00:00 11.2 6 Sudeste 28 Sur 0 -- -- 82
2021-02-12 19:00:00 10.9 5 Sudeste 18 Sur 0 -- -- 87
2021-02-12 18:00:00 10.8 6 Sur 15 Sudoeste 0 -- -- 88
2021-02-12 17:00:00 11.2 6 Sur 19 Sur 0.6 -- -- 87
2021-02-12 16:00:00 11.5 5 Sur 16 Sur 0.2 -- -- 86
2021-02-12 15:00:00 11.9 4 Sudeste 32 Nordeste 0.8 -- -- 83
2021-02-12 14:00:00 12.3 5 Sudoeste 22 Sudoeste 0.8 -- -- 85
2021-02-12 13:00:00 13.2 4 Sudoeste 14 Sudoeste 0 -- -- 78
2021-02-12 12:00:00 14 3 Sudoeste 17 Sur 0 -- -- 75
2021-02-12 11:00:00 13.9 2 Sudoeste 4 Sudoeste 0 -- -- 86
2021-02-12 10:00:00 10 2 Sur 6 Sudeste 0 -- -- 93
2021-02-12 09:00:00 8.8 3 Norte 5 Noroeste 0 -- -- 92
2021-02-12 08:00:00 8.5 0 Calma 3 Noroeste 0 -- -- 91
2021-02-12 07:00:00 8.7 0 Calma 7 Norte 0 -- -- 92
2021-02-12 06:00:00 8.7 0 Calma 3 Noroeste 0 -- -- 91
2021-02-12 05:00:00 8.6 0 Calma 5 Oeste 0 -- -- 92
2021-02-12 04:00:00 8.4 0 Calma 4 Sur 0 -- -- 92
2021-02-12 03:00:00 8.4 0 Calma 3 Sudeste 0 -- -- 92
2021-02-12 02:00:00 8.4 0 Calma 4 Sudeste 0 -- -- 92
2021-02-12 01:00:00 8.6 0 Calma 5 Oeste 0 -- -- 92
2021-02-12 00:00:00 8.8 0 Calma 4 Sudeste 0 -- -- 90
2021-02-11 23:00:00 9.4 0 Calma 3 Sudeste 0 -- -- 88
2021-02-11 22:00:00 10.1 0 Calma 5 Sudeste 0 -- -- 85
2021-02-11 21:00:00 10.9 0 Calma 4 Sudeste 0 -- -- 82
2021-02-11 20:00:00 12.6 2 Sur 6 Este 0 -- -- 75
2021-02-11 19:00:00 14.5 5 Este 10 Este 0 -- -- 69
2021-02-11 18:00:00 15.7 2 Nordeste 14 Sudoeste 0 -- -- 65
2021-02-11 17:00:00 17.1 8 Sur 22 Sudoeste 0 -- -- 59
2021-02-11 16:00:00 17.9 8 Sur 24 Sudoeste 0 -- -- 55
2021-02-11 15:00:00 17.2 6 Sudoeste 22 Sudoeste 0 -- -- 56
2021-02-11 14:00:00 16.1 6 Nordeste 22 Sur 0 -- -- 60
2021-02-11 13:00:00 14.7 6 Sudoeste 19 Sur 0 -- -- 57
2021-02-11 12:00:00 13.7 5 Sur 15 Sudoeste 0 -- -- 59
2021-02-11 11:00:00 12.3 4 Sur 15 Nordeste 0 -- -- 61
2021-02-11 10:00:00 9.5 7 Este 15 Este 0 -- -- 65
2021-02-11 09:00:00 8 7 Este 17 Este 0 -- -- 71
2021-02-11 08:00:00 5.3 4 Este 9 Este 0 -- -- 84
2021-02-11 07:00:00 4.2 2 Nordeste 6 Norte 0 -- -- 86
2021-02-11 06:00:00 4.6 2 Sur 8 Noroeste 0 -- -- 85
2021-02-11 05:00:00 4.8 0 Calma 13 Norte 0 -- -- 84
2021-02-11 04:00:00 5.1 0 Calma 10 Este 0 -- -- 80
2021-02-11 03:00:00 6.9 4 Nordeste 11 Este 0 -- -- 75
2021-02-11 02:00:00 8 3 Nordeste 12 Este 0 -- -- 69
2021-02-11 01:00:00 8.4 7 Sudeste 19 Nordeste 0 -- -- 67
2021-02-11 00:00:00 7.6 4 Nordeste 13 Este 0 -- -- 70
2021-02-10 23:00:00 8.5 6 Nordeste 22 Nordeste 0 -- -- 66
2021-02-10 22:00:00 9.3 4 Este 24 Norte 0 -- -- 64
2021-02-10 21:00:00 9.9 9 Este 27 Este 0 -- -- 61
2021-02-10 20:00:00 10.5 9 Este 32 Este 0 -- -- 60
2021-02-10 19:00:00 10.9 8 Este 25 Norte 0 -- -- 59
2021-02-10 18:00:00 12.8 10 Sudeste 25 Sur 0 -- -- 54
2021-02-10 17:00:00 13.3 12 Sur 37 Sudoeste 0 -- -- 52
2021-02-10 16:00:00 12.4 11 Sudoeste 37 Sur 0 -- -- 57
2021-02-10 15:00:00 13.1 14 Sudoeste 37 Sur 0 -- -- 58
2021-02-10 14:00:00 11.3 11 Sudeste 31 Sur 0 -- -- 70
2021-02-10 13:00:00 10 10 Sur 28 Sur 0 -- -- 73
2021-02-10 12:00:00 8.6 12 Sudoeste 32 Sur 0 -- -- 76
2021-02-10 11:00:00 8.4 6 Sur 23 Sudoeste 0 -- -- 87
2021-02-10 10:00:00 7.1 5 Sudoeste 12 Oeste 0 -- -- 91
2021-02-10 09:00:00 6.7 2 Nordeste 8 Este 0.6 -- -- 94
2021-02-10 08:00:00 6.6 4 Sudeste 8 Sudeste 1.8 -- -- 94
2021-02-10 07:00:00 6.5 0 Calma 8 Nordeste 0 -- -- 92
2021-02-10 06:00:00 6.7 4 Sur 9 Este 0.2 -- -- 91
2021-02-10 05:00:00 7.1 7 Este 14 Este 0.6 -- -- 90
2021-02-10 04:00:00 6.8 4 Este 13 Este 0 -- -- 86
2021-02-10 03:00:00 7 3 Este 12 Nordeste 0 -- -- 87
2021-02-10 02:00:00 7.5 5 Nordeste 14 Este 0 -- -- 82
2021-02-10 01:00:00 7.8 5 Este 14 Este 0 -- -- 81
2021-02-10 00:00:00 8.4 6 Este 18 Este 0 -- -- 81
2021-02-09 23:00:00 8 7 Nordeste 14 Nordeste 0 -- -- 89
2021-02-09 22:00:00 7.7 4 Sur 10 Sur 0 -- -- 93
2021-02-09 21:00:00 8 3 Nordeste 7 Norte 0 -- -- 92
2021-02-09 20:00:00 9 0 Calma 9 Sudeste 0 -- -- 90
2021-02-09 19:00:00 10 3 Sudeste 21 Sur 2.4 -- -- 87
2021-02-09 18:00:00 10.8 6 Este 25 Este 0.4 -- -- 78
2021-02-09 17:00:00 11.5 7 Sudeste 25 Este 0 -- -- 69
2021-02-09 16:00:00 12.1 6 Sur 30 Sudeste 0 -- -- 62
2021-02-09 15:00:00 12.2 10 Sudeste 25 Este 0 -- -- 59
2021-02-09 14:00:00 11.7 11 Sudeste 23 Sur 0 -- -- 59
2021-02-09 13:00:00 11.2 5 Sudeste 23 Este 0 -- -- 65
2021-02-09 12:00:00 10.3 0 Calma 4 Oeste 0 -- -- 82
2021-02-09 11:00:00 9.1 3 Este 7 Este 0 -- -- 81
2021-02-09 10:00:00 7.8 0 Calma 4 Este 0 -- -- 88
2021-02-09 09:00:00 7 0 Calma 8 Norte 0 -- -- 86
2021-02-09 08:00:00 6.4 0 Calma 7 Norte 0 -- -- 85
2021-02-09 07:00:00 6 2 Norte 5 Nordeste 0 -- -- 85
2021-02-09 06:00:00 7.1 0 Calma 10 Este 0 -- -- 79
2021-02-09 05:00:00 8.1 4 Este 25 Este 0 -- -- 74
2021-02-09 04:00:00 8 9 Nordeste 23 Nordeste 0 -- -- 74
2021-02-09 03:00:00 7.8 6 Nordeste 15 Nordeste 0 -- -- 75
2021-02-09 02:00:00 7.5 7 Este 14 Este 0 -- -- 77
2021-02-09 01:00:00 7.7 4 Sudeste 12 Sudeste 0 -- -- 76
2021-02-09 00:00:00 8.4 4 Sur 13 Sur 0 -- -- 74
2021-02-08 23:00:00 9.4 3 Sur 13 Sur 0 -- -- 70
2021-02-08 22:00:00 8.9 5 Este 9 Sur 0 -- -- 74
2021-02-08 21:00:00 8.9 5 Sudeste 11 Sudeste 0 -- -- 75
2021-02-08 20:00:00 9.6 4 Sudeste 12 Sudeste 0 -- -- 72
2021-02-08 19:00:00 9.4 2 Sur 8 Sudeste 0 -- -- 81
2021-02-08 18:00:00 11.7 3 Oeste 10 Sudoeste 0 -- -- 74
2021-02-08 17:00:00 11.9 3 Este 14 Sudoeste 0 -- -- 74
2021-02-08 16:00:00 13.7 5 Sudoeste 18 Sudoeste 2.4 -- -- 69
2021-02-08 15:00:00 12 5 Nordeste 16 Norte 0 -- -- 76
2021-02-08 14:00:00 8.5 5 Este 12 Este 0 -- -- 89
2021-02-08 13:00:00 8.3 3 Sudeste 7 Sudoeste 0.2 -- -- 92
2021-02-08 12:00:00 7.8 2 Noroeste 5 Este 0.2 -- -- 92
2021-02-08 11:00:00 7 0 Calma 3 Norte 0 -- -- 91
2021-02-08 10:00:00 6.8 0 Calma 4 Sudoeste 0 -- -- 87
2021-02-08 09:00:00 6.3 2 Norte 8 Noroeste 0 -- -- 87
2021-02-08 08:00:00 7.3 3 Este 18 Este 0 -- -- 80
2021-02-08 07:00:00 4.8 0 Calma 5 Noroeste 0 -- -- 89
2021-02-08 06:00:00 4.6 0 Calma 4 Noroeste 0 -- -- 85
2021-02-08 05:00:00 5.3 3 Sudeste 9 Sudeste 0 -- -- 81
2021-02-08 04:00:00 7.2 5 Este 14 Sudeste 0 -- -- 73
2021-02-08 03:00:00 7.4 6 Este 19 Norte 0 -- -- 71
2021-02-08 02:00:00 7.8 7 Nordeste 17 Nordeste 0 -- -- 68
2021-02-08 01:00:00 7.3 6 Sudeste 14 Sudeste 0 -- -- 68
2021-02-08 00:00:00 7 4 Nordeste 9 Nordeste 0 -- -- 70
2021-02-07 23:00:00 7.1 3 Este 8 Este 0 -- -- 69
2021-02-07 22:00:00 6.5 2 Sur 6 Sudeste 0 -- -- 73
2021-02-07 21:00:00 7.5 2 Nordeste 12 Este 0 -- -- 67
2021-02-07 20:00:00 7.9 4 Nordeste 10 Este 0 -- -- 64
2021-02-07 19:00:00 8.2 0 Calma 23 Sudoeste 0 -- -- 66
2021-02-07 18:00:00 9.7 6 Sudeste 21 Sudoeste 0 -- -- 59
2021-02-07 17:00:00 10.3 6 Sur 21 Sudoeste 0 -- -- 57
2021-02-07 16:00:00 11.7 8 Sudoeste 28 Sur 0 -- -- 54
2021-02-07 15:00:00 10.7 6 Sur 21 Sudoeste 0.2 -- -- 58
2021-02-07 14:00:00 9.6 6 Sur 26 Sudoeste 0 -- -- 61
2021-02-07 13:00:00 9 8 Sudoeste 24 Sudoeste 0 -- -- 64
2021-02-07 12:00:00 7.6 9 Oeste 29 Sur 0 -- -- 67
2021-02-07 11:00:00 6.8 10 Sudoeste 30 Sudoeste 0 -- -- 70
2021-02-07 10:00:00 4.9 5 Sudoeste 21 Sudoeste 0.2 -- -- 78
2021-02-07 09:00:00 4.5 6 Sur 20 Sudoeste 0 -- -- 78
2021-02-07 08:00:00 4.9 5 Sudoeste 18 Sur 0 -- -- 77
2021-02-07 07:00:00 5.6 5 Oeste 19 Oeste 0 -- -- 78
2021-02-07 06:00:00 5.9 5 Sudoeste 14 Sudoeste 0.2 -- -- 80
2021-02-07 05:00:00 6 5 Sudoeste 17 Sur 0 -- -- 83
2021-02-07 04:00:00 6.3 4 Sur 12 Sudoeste 0 -- -- 84
2021-02-07 03:00:00 6.6 3 Norte 12 Sudoeste 0.2 -- -- 84
2021-02-07 02:00:00 7 3 Sudoeste 15 Oeste 0 -- -- 84
2021-02-07 01:00:00 7.2 6 Oeste 19 Oeste 0.2 -- -- 85
2021-02-07 00:00:00 7.7 5 Oeste 21 Noroeste 0 -- -- 87
2021-02-06 23:00:00 8.2 7 Sudoeste 19 Oeste 0.2 -- -- 88
2021-02-06 22:00:00 8.9 6 Sudoeste 17 Sur 0.4 -- -- 89
2021-02-06 21:00:00 9.9 5 Oeste 14 Oeste 0.2 -- -- 90
2021-02-06 20:00:00 10.8 4 Sudeste 23 Noroeste 0.6 -- -- 85
2021-02-06 19:00:00 12.6 0 Calma 6 Sudeste 0 -- -- 74
2021-02-06 18:00:00 14.6 0 Calma 5 Sur 0 -- -- 66
2021-02-06 17:00:00 15.2 2 Sur 6 Sur 0 -- -- 58
2021-02-06 16:00:00 15.2 0 Calma 9 Sudoeste 0 -- -- 58
2021-02-06 15:00:00 15.6 2 Noroeste 12 Oeste 0 -- -- 60
2021-02-06 14:00:00 16 6 Noroeste 14 Oeste 0 -- -- 57
2021-02-06 13:00:00 16.2 6 Sudoeste 17 Oeste 0 -- -- 59
2021-02-06 12:00:00 14.7 4 Sur 12 Oeste 0 -- -- 67
2021-02-06 11:00:00 12.8 3 Sudoeste 8 Sudeste 0 -- -- 74
2021-02-06 10:00:00 11.2 2 Norte 10 Este 0 -- -- 83
2021-02-06 09:00:00 9.8 3 Oeste 12 Nordeste 0 -- -- 85
2021-02-06 08:00:00 9.5 4 Norte 15 Norte 0 -- -- 85
2021-02-06 07:00:00 10 2 Nordeste 6 Nordeste 0 -- -- 82
2021-02-06 06:00:00 10.6 2 Sudeste 10 Sudeste 0 -- -- 80
2021-02-06 05:00:00 11.4 4 Oeste 9 Nordeste 0 -- -- 78
2021-02-06 04:00:00 11.6 2 Norte 13 Norte 0 -- -- 77
2021-02-06 03:00:00 12.6 5 Nordeste 22 Noroeste 0 -- -- 72
2021-02-06 02:00:00 15.2 7 Oeste 27 Sudoeste 0 -- -- 55
2021-02-06 01:00:00 16.2 8 Oeste 21 Sudeste 0 -- -- 48
2021-02-06 00:00:00 15.9 8 Noroeste 46 Sur 0 -- -- 47
2021-02-05 23:00:00 15 9 Oeste 40 Oeste 0 -- -- 51
2021-02-05 22:00:00 13.8 11 Sur 26 Sur 0 -- -- 62
2021-02-05 21:00:00 13.6 8 Sudoeste 26 Sudeste 0 -- -- 65
2021-02-05 20:00:00 12.6 7 Oeste 32 Sur 0 -- -- 72
2021-02-05 19:00:00 13.1 8 Sudoeste 33 Sudeste 0 -- -- 73
2021-02-05 18:00:00 12.8 6 Sudeste 44 Sudeste 0 -- -- 77
2021-02-05 17:00:00 13.4 11 Sudoeste 36 Sur 0 -- -- 73
2021-02-05 16:00:00 14 10 Sudeste 35 Sudeste 0 -- -- 72
2021-02-05 15:00:00 14.7 9 Sudoeste 31 Sur 0 -- -- 68
2021-02-05 14:00:00 14.2 13 Sur 37 Sudeste 0 -- -- 69
2021-02-05 13:00:00 13.2 15 Sudeste 41 Sudeste 0 -- -- 73
2021-02-05 12:00:00 12.9 15 Sur 40 Sudeste 0 -- -- 74
2021-02-05 11:00:00 12.5 13 Sudeste 33 Sur 0 -- -- 74
2021-02-05 10:00:00 12.2 9 Norte 27 Nordeste 0 -- -- 74
2021-02-05 09:00:00 10.4 9 Sur 24 Sudeste 0 -- -- 82
2021-02-05 08:00:00 9.4 3 Norte 15 Noroeste 0 -- -- 86
2021-02-05 07:00:00 10 9 Sur 21 Este 0 -- -- 86
2021-02-05 06:00:00 9.8 6 Sur 20 Nordeste 0 -- -- 90
2021-02-05 05:00:00 9.5 12 Sur 26 Sudeste 0 -- -- 93
2021-02-05 04:00:00 8.8 0 Calma 5 Este 0 -- -- 92
2021-02-05 03:00:00 9.4 3 Sudeste 13 Oeste 0 -- -- 91
2021-02-05 02:00:00 9.9 3 Noroeste 8 Noroeste 0 -- -- 89
2021-02-05 01:00:00 10.1 4 Noroeste 8 Oeste 0 -- -- 88
2021-02-05 00:00:00 10.2 4 Norte 12 Norte 0 -- -- 86
2021-02-04 23:00:00 10.8 6 Norte 14 Noroeste 0 -- -- 82
2021-02-04 22:00:00 12.4 7 Noroeste 26 Sur 0 -- -- 74
2021-02-04 21:00:00 13.3 7 Sudoeste 31 Sudeste 0 -- -- 69
2021-02-04 20:00:00 13.5 15 Sudeste 37 Sur 0 -- -- 68
2021-02-04 19:00:00 13.4 12 Sur 29 Sur 0 -- -- 69
2021-02-04 18:00:00 14.2 11 Sur 35 Sur 0 -- -- 66
2021-02-04 17:00:00 15.5 11 Oeste 36 Sur 0 -- -- 63
2021-02-04 16:00:00 15.4 10 Sur 29 Sur 0 -- -- 67
2021-02-04 15:00:00 15.9 7 Oeste 18 Noroeste 0 -- -- 68
2021-02-04 14:00:00 16.1 5 Oeste 28 Este 0 -- -- 67
2021-02-04 13:00:00 17.3 6 Sudeste 21 Sudeste 0 -- -- 57
2021-02-04 12:00:00 17.4 5 Sudoeste 17 Sudeste 0 -- -- 60
2021-02-04 11:00:00 15.7 6 Sudeste 15 Oeste 0 -- -- 64
2021-02-04 10:00:00 10.9 4 Sur 9 Sur 0 -- -- 83
2021-02-04 09:00:00 8.9 2 Noroeste 6 Sur 0 -- -- 88
2021-02-04 08:00:00 8.1 0 Calma 4 Este 0 -- -- 89
2021-02-04 07:00:00 8.4 0 Calma 4 Este 0 -- -- 87
2021-02-04 06:00:00 8.7 0 Calma 4 Nordeste 0 -- -- 86
2021-02-04 05:00:00 9.2 2 Sudeste 7 Sudeste 0 -- -- 86
2021-02-04 04:00:00 9.2 0 Calma 9 Sudeste 0 -- -- 87
2021-02-04 03:00:00 9.2 4 Nordeste 10 Sudeste 0 -- -- 87
2021-02-04 02:00:00 9.6 0 Calma 5 Norte 0 -- -- 86
2021-02-04 01:00:00 9.7 0 Calma 3 Sudeste 0 -- -- 84
2021-02-04 00:00:00 10.3 0 Calma 4 Sur 0 -- -- 83
2021-02-03 23:00:00 10.5 0 Calma 2 Sudeste 0 -- -- 82
2021-02-03 22:00:00 11 0 Calma 3 Noroeste 0 -- -- 80
2021-02-03 21:00:00 11.5 0 Calma 2 Sur 0 -- -- 78
2021-02-03 20:00:00 12.1 0 Calma 4 Norte 0 -- -- 76
2021-02-03 19:00:00 13.5 0 Calma 6 Sudeste 0 -- -- 69
2021-02-03 18:00:00 14.4 0 Calma 11 Noroeste 0 -- -- 67
2021-02-03 17:00:00 15.9 5 Norte 11 Nordeste 0 -- -- 60
2021-02-03 16:00:00 16.7 4 Nordeste 15 Este 0 -- -- 57
2021-02-03 15:00:00 16.5 5 Nordeste 26 Nordeste 0 -- -- 56
2021-02-03 14:00:00 16.1 7 Este 23 Norte 0 -- -- 56
2021-02-03 13:00:00 16.1 8 Noroeste 21 Norte 0 -- -- 55
2021-02-03 12:00:00 15.6 8 Nordeste 19 Nordeste 0 -- -- 56
2021-02-03 11:00:00 13.4 8 Noroeste 23 Nordeste 0 -- -- 63
2021-02-03 10:00:00 11.3 6 Este 14 Sudoeste 0 -- -- 69
2021-02-03 09:00:00 6.9 0 Calma 4 Nordeste 0 -- -- 87
2021-02-03 08:00:00 7.5 0 Calma 7 Noroeste 0 -- -- 82
2021-02-03 07:00:00 10.5 2 Sur 12 Sur 0 -- -- 73
2021-02-03 06:00:00 11.1 4 Sudeste 12 Sudeste 0 -- -- 72
2021-02-03 05:00:00 11.1 5 Sudeste 10 Este 0 -- -- 74
2021-02-03 04:00:00 10.1 2 Sudeste 11 Sudoeste 0 -- -- 77
2021-02-03 03:00:00 9.1 2 Norte 9 Sudeste 0 -- -- 81
2021-02-03 02:00:00 9.5 4 Sudeste 8 Este 0 -- -- 84
2021-02-03 01:00:00 8.4 0 Calma 4 Sudeste 0 -- -- 87
2021-02-03 00:00:00 8.8 0 Calma 5 Sudeste 0 -- -- 84
2021-02-02 23:00:00 9.3 0 Calma 4 Sudeste 0 -- -- 83
2021-02-02 22:00:00 10.2 0 Calma 5 Sur 0 -- -- 80
2021-02-02 21:00:00 11.2 0 Calma 6 Sudeste 0 -- -- 75
2021-02-02 20:00:00 12.3 0 Calma 4 Sudeste 0 -- -- 72
2021-02-02 19:00:00 14.1 0 Calma 9 Nordeste 0 -- -- 66
2021-02-02 18:00:00 18 0 Calma 15 Norte 0 -- -- 56
2021-02-02 17:00:00 19.6 6 Noroeste 20 Sur 0 -- -- 49
2021-02-02 16:00:00 20.1 5 Sudoeste 20 Oeste 0 -- -- 50
2021-02-02 15:00:00 19.2 7 Oeste 26 Sudoeste 0 -- -- 53
2021-02-02 14:00:00 18 10 Sudeste 25 Sur 0 -- -- 57
2021-02-02 13:00:00 17.1 10 Sur 24 Sur 0 -- -- 57
2021-02-02 12:00:00 16.4 8 Sudeste 27 Nordeste 0 -- -- 61
2021-02-02 11:00:00 14.7 7 Nordeste 18 Nordeste 0 -- -- 66
2021-02-02 10:00:00 12.5 7 Este 15 Este 0 -- -- 73
2021-02-02 09:00:00 11.2 5 Nordeste 13 Este 0 -- -- 76
2021-02-02 08:00:00 9.5 3 Este 9 Nordeste 0 -- -- 82
2021-02-02 07:00:00 9.5 3 Este 13 Oeste 0 -- -- 81
2021-02-02 06:00:00 8.9 3 Nordeste 7 Este 0 -- -- 84
2021-02-02 05:00:00 10.1 0 Calma 12 Este 0 -- -- 76
2021-02-02 04:00:00 11.6 4 Este 14 Sudeste 0 -- -- 72
2021-02-02 03:00:00 12 6 Sudeste 26 Este 0 -- -- 71
2021-02-02 02:00:00 12.4 8 Sudeste 30 Nordeste 0 -- -- 72
2021-02-02 01:00:00 13 10 Norte 26 Nordeste 0 -- -- 69
2021-02-02 00:00:00 13.5 14 Nordeste 31 Nordeste 0 -- -- 66
2021-02-01 23:00:00 13.7 9 Sudeste 31 Sudoeste 0 -- -- 66
2021-02-01 22:00:00 13.9 11 Sudeste 25 Este 0 -- -- 64
2021-02-01 21:00:00 14.6 10 Este 28 Sudoeste 0 -- -- 61
2021-02-01 20:00:00 14.7 9 Sudeste 30 Oeste 0 -- -- 60
2021-02-01 19:00:00 14.7 10 Sur 32 Sudoeste 0 -- -- 60
2021-02-01 18:00:00 15.5 12 Sudoeste 29 Sudoeste 0 -- -- 54
2021-02-01 17:00:00 16 10 Sudoeste 32 Sur 0 -- -- 51
2021-02-01 16:00:00 16.4 8 Sudoeste 37 Sudoeste 0 -- -- 48
2021-02-01 15:00:00 17.1 13 Sudoeste 39 Sudoeste 0 -- -- 45
2021-02-01 14:00:00 17 16 Sur 47 Sudoeste 0 -- -- 42
2021-02-01 13:00:00 16.2 13 Sur 51 Sudoeste 0 -- -- 47
2021-02-01 12:00:00 15.3 10 Sur 41 Sudoeste 0 -- -- 50
2021-02-01 11:00:00 14 10 Sur 40 Oeste 0 -- -- 54
2021-02-01 10:00:00 11.7 8 Sur 25 Sur 0 -- -- 62
2021-02-01 09:00:00 11 12 Sur 29 Sur 0 -- -- 64
2021-02-01 08:00:00 11 7 Sur 19 Sudoeste 0 -- -- 64
2021-02-01 07:00:00 11.4 5 Este 23 Nordeste 0 -- -- 63
2021-02-01 06:00:00 12.1 8 Sudeste 17 Sudeste 0 -- -- 61
2021-02-01 05:00:00 13.2 6 Sudeste 20 Sur 0 -- -- 58
2021-02-01 04:00:00 13.5 8 Sur 19 Sudoeste 0 -- -- 58
2021-02-01 03:00:00 14.2 9 Sur 28 Sudoeste 0 -- -- 58
2021-02-01 02:00:00 14.1 10 Sur 27 Sur 0 -- -- 59
2021-02-01 01:00:00 13.2 6 Sudoeste 21 Sudoeste 0 -- -- 65
2021-02-01 00:00:00 12.9 5 Sudoeste 15 Sudoeste 0 -- -- 69
2021-01-31 23:00:00 12.5 5 Este 15 Este 0 -- -- 71
2021-01-31 22:00:00 12.7 8 Este 29 Nordeste 0 -- -- 68
2021-01-31 21:00:00 13.5 14 Nordeste 31 Norte 0 -- -- 65
2021-01-31 20:00:00 13.6 10 Sudeste 34 Oeste 0 -- -- 65
2021-01-31 19:00:00 14.4 10 Sur 30 Sur 0 -- -- 63
2021-01-31 18:00:00 14.7 9 Sur 31 Sur 0 -- -- 61
2021-01-31 17:00:00 15.7 12 Sudoeste 37 Sur 0 -- -- 56
2021-01-31 16:00:00 15.6 17 Sudoeste 48 Sudoeste 0 -- -- 54
2021-01-31 15:00:00 15.2 15 Sur 51 Sur 0 -- -- 50
2021-01-31 14:00:00 15 13 Sur 36 Sur 0 -- -- 51
2021-01-31 13:00:00 14.4 17 Sudoeste 54 Sudoeste 0 -- -- 51
2021-01-31 12:00:00 13.2 16 Sur 54 Sudoeste 0 -- -- 55
2021-01-31 11:00:00 11.3 13 Sur 39 Oeste 0 -- -- 61
2021-01-31 10:00:00 9.8 11 Oeste 36 Oeste 0 -- -- 65
2021-01-31 09:00:00 9.2 12 Sur 27 Sudoeste 0 -- -- 65
2021-01-31 08:00:00 8.7 14 Sudoeste 30 Sudoeste 0 -- -- 66
2021-01-31 07:00:00 8.9 13 Sur 40 Oeste 0 -- -- 66
2021-01-31 06:00:00 9.4 13 Sur 35 Sur 0 -- -- 66
2021-01-31 05:00:00 9.3 12 Sudoeste 27 Sudoeste 0 -- -- 65
2021-01-31 04:00:00 9.1 6 Sur 25 Sudoeste 0 -- -- 67
2021-01-31 03:00:00 8.7 7 Sur 21 Sudoeste 0 -- -- 69
2021-01-31 02:00:00 8.7 8 Sur 25 Sur 0 -- -- 70
2021-01-31 01:00:00 8.8 8 Sur 22 Este 0 -- -- 69
2021-01-31 00:00:00 9.1 6 Sudeste 28 Sur 0 -- -- 66